createdAt,value
2022-11-23T00:00:29.445Z,99.90
2022-11-23T00:03:16.144Z,99.90
2022-11-23T00:06:02.546Z,99.90
2022-11-23T00:08:48.985Z,99.90
2022-11-23T00:11:35.922Z,99.90
2022-11-23T00:14:21.492Z,99.90
2022-11-23T00:17:07.174Z,99.90
2022-11-23T00:19:52.746Z,99.90
2022-11-23T00:22:38.032Z,99.90
2022-11-23T00:25:23.457Z,99.90
2022-11-23T00:28:08.972Z,99.90
2022-11-23T00:30:54.784Z,99.90
2022-11-23T00:33:40.719Z,99.90
2022-11-23T00:36:27.847Z,99.90
2022-11-23T00:39:13.238Z,99.90
2022-11-23T00:41:58.768Z,99.90
2022-11-23T00:44:44.260Z,99.90
2022-11-23T00:47:29.781Z,99.90
2022-11-23T00:50:15.937Z,99.90
2022-11-23T00:53:01.423Z,99.90
2022-11-23T00:55:54.587Z,99.90
2022-11-23T00:58:40.159Z,99.90
2022-11-23T01:01:33.846Z,99.90
2022-11-23T01:04:19.537Z,99.90
2022-11-23T01:07:04.731Z,99.90
2022-11-23T01:09:50.267Z,99.90
2022-11-23T01:12:35.742Z,99.90
2022-11-23T01:15:20.969Z,99.90
2022-11-23T01:18:06.561Z,99.90
2022-11-23T01:20:52.562Z,99.90
2022-11-23T01:23:38.020Z,99.90
2022-11-23T01:26:23.972Z,99.90
2022-11-23T01:29:09.601Z,99.90
2022-11-23T01:31:54.955Z,99.90
2022-11-23T01:34:40.389Z,99.90
2022-11-23T01:37:25.876Z,99.90
2022-11-23T01:40:12.024Z,99.90
2022-11-23T01:43:00.237Z,99.90
2022-11-23T01:45:57.180Z,99.90
2022-11-23T01:49:06.728Z,99.90
2022-11-23T01:51:55.923Z,99.90
2022-11-23T01:54:49.662Z,99.90
2022-11-23T01:57:40.599Z,99.90
2022-11-23T02:00:26.145Z,99.90
2022-11-23T02:03:12.165Z,99.90
2022-11-23T02:06:01.710Z,99.90
2022-11-23T02:08:48.595Z,99.90
2022-11-23T02:11:33.912Z,99.90
2022-11-23T02:14:23.394Z,99.90
2022-11-23T02:17:09.232Z,99.90
2022-11-23T02:20:03.135Z,99.90
2022-11-23T02:22:57.418Z,99.90
2022-11-23T02:25:45.950Z,99.90
2022-11-23T02:28:55.954Z,99.90
2022-11-23T02:31:41.401Z,99.90
2022-11-23T02:34:26.972Z,99.90
2022-11-23T02:37:14.072Z,99.90
2022-11-23T02:40:02.219Z,99.90
2022-11-23T02:42:49.328Z,99.90
2022-11-23T02:45:59.876Z,99.90
2022-11-23T02:48:45.340Z,99.90
2022-11-23T02:51:30.993Z,99.90
2022-11-23T02:54:16.553Z,99.90
2022-11-23T02:57:02.350Z,99.90
2022-11-23T02:59:47.501Z,99.90
2022-11-23T03:02:33.074Z,99.90
2022-11-23T03:05:18.525Z,99.90
2022-11-23T03:08:04.068Z,99.90
2022-11-23T03:10:49.516Z,99.90
2022-11-23T03:13:34.800Z,99.90
2022-11-23T03:16:20.565Z,99.90
2022-11-23T03:19:06.080Z,99.90
2022-11-23T03:21:51.352Z,99.90
2022-11-23T03:24:37.052Z,99.90
2022-11-23T03:27:22.545Z,99.90
2022-11-23T03:30:09.470Z,99.90
2022-11-23T03:32:55.183Z,99.90
2022-11-23T03:35:40.740Z,99.90
2022-11-23T03:38:26.905Z,99.90
2022-11-23T03:41:12.276Z,99.90
2022-11-23T03:43:57.858Z,99.90
2022-11-23T03:46:43.336Z,99.90
2022-11-23T03:49:29.274Z,99.90
2022-11-23T03:52:14.952Z,99.90
2022-11-23T03:55:00.432Z,99.90
2022-11-23T03:57:48.276Z,99.90
2022-11-23T04:00:34.403Z,99.90
2022-11-23T04:03:19.589Z,99.90
2022-11-23T04:06:05.415Z,99.90
2022-11-23T04:08:50.821Z,99.90
2022-11-23T04:11:36.259Z,99.90
2022-11-23T04:14:21.875Z,99.90
2022-11-23T04:17:07.270Z,99.90
2022-11-23T04:19:53.021Z,99.90
2022-11-23T04:22:38.237Z,99.90
2022-11-23T04:25:23.804Z,99.90
2022-11-23T04:28:09.336Z,99.90
2022-11-23T04:30:54.803Z,99.90
2022-11-23T04:33:40.414Z,99.90
2022-11-23T04:36:25.865Z,99.90
2022-11-23T04:39:15.238Z,99.90
2022-11-23T04:42:00.533Z,99.90
2022-11-23T04:44:46.557Z,99.90
2022-11-23T04:47:32.571Z,99.90
2022-11-23T04:50:17.984Z,99.90
2022-11-23T04:53:03.961Z,99.90
2022-11-23T04:55:49.515Z,99.90
2022-11-23T04:58:36.606Z,99.90
2022-11-23T05:01:23.062Z,99.90
2022-11-23T05:04:11.285Z,99.90
2022-11-23T05:06:58.869Z,99.90
2022-11-23T05:09:44.360Z,99.90
2022-11-23T05:12:30.052Z,99.90
2022-11-23T05:15:15.594Z,99.90
2022-11-23T05:18:06.820Z,99.90
2022-11-23T05:20:52.527Z,99.90
2022-11-23T05:23:37.920Z,99.90
2022-11-23T05:26:23.508Z,99.90
2022-11-23T05:29:09.240Z,99.90
2022-11-23T05:31:54.832Z,99.90
2022-11-23T05:34:40.382Z,99.90
2022-11-23T05:37:25.872Z,99.90
2022-11-23T05:40:11.940Z,99.90
2022-11-23T05:42:58.575Z,99.90
2022-11-23T05:45:44.245Z,99.90
2022-11-23T05:48:29.718Z,99.90
2022-11-23T05:51:15.325Z,99.90
2022-11-23T05:54:01.976Z,99.90
2022-11-23T05:56:47.326Z,99.90
2022-11-23T05:59:33.039Z,99.90
2022-11-23T06:02:18.851Z,99.90
2022-11-23T06:05:05.270Z,99.90
2022-11-23T06:07:53.813Z,99.90
2022-11-23T06:10:38.885Z,99.90
2022-11-23T06:13:24.416Z,99.90
2022-11-23T06:16:09.884Z,99.90
2022-11-23T06:18:55.340Z,99.90
2022-11-23T06:21:41.726Z,99.90
2022-11-23T06:24:29.484Z,99.90
2022-11-23T06:27:18.255Z,99.90
2022-11-23T06:30:04.789Z,99.90
2022-11-23T06:32:50.565Z,99.90
2022-11-23T06:35:35.981Z,99.90
2022-11-23T06:38:21.704Z,99.90
2022-11-23T06:41:06.941Z,99.90
2022-11-23T06:43:52.527Z,99.90
2022-11-23T06:46:38.077Z,99.90
2022-11-23T06:49:23.636Z,99.90
2022-11-23T06:52:09.101Z,99.90
2022-11-23T06:54:54.763Z,99.90
2022-11-23T06:57:40.023Z,99.90
2022-11-23T07:00:25.578Z,99.90
2022-11-23T07:03:21.851Z,99.90
2022-11-23T07:06:08.820Z,99.90
2022-11-23T07:08:55.801Z,99.90
2022-11-23T07:11:41.451Z,99.90
2022-11-23T07:14:26.841Z,99.90
2022-11-23T07:17:16.216Z,99.90
2022-11-23T07:20:03.063Z,99.90
2022-11-23T07:22:48.570Z,99.90
2022-11-23T07:25:35.903Z,99.90
2022-11-23T07:28:21.293Z,99.90
2022-11-23T07:31:07.134Z,99.90
2022-11-23T07:33:53.448Z,99.90
2022-11-23T07:36:39.025Z,99.90
2022-11-23T07:39:42.004Z,99.90
2022-11-23T07:42:36.924Z,99.90
2022-11-23T07:45:26.939Z,99.90
2022-11-23T07:48:12.384Z,99.90
2022-11-23T07:50:57.777Z,99.90
2022-11-23T07:53:43.240Z,99.90
2022-11-23T07:56:29.130Z,99.90
2022-11-23T07:59:14.437Z,99.90
2022-11-23T08:01:59.783Z,99.90
2022-11-23T08:04:45.404Z,99.90
2022-11-23T08:07:31.008Z,99.90
2022-11-23T08:10:16.357Z,99.90
2022-11-23T08:13:05.116Z,99.90
2022-11-23T08:15:54.810Z,99.90
2022-11-23T08:18:41.170Z,99.90
2022-11-23T08:21:26.916Z,99.90
2022-11-23T08:24:12.594Z,99.90
2022-11-23T08:26:58.061Z,99.90
2022-11-23T08:29:43.355Z,99.90
2022-11-23T08:32:28.906Z,99.90
2022-11-23T08:35:14.217Z,99.90
2022-11-23T08:37:59.756Z,99.90
2022-11-23T08:40:45.424Z,99.90
2022-11-23T08:43:31.182Z,99.90
2022-11-23T08:46:16.855Z,99.90
2022-11-23T08:49:02.396Z,99.90
2022-11-23T08:51:50.248Z,99.90
2022-11-23T08:54:35.886Z,99.90
2022-11-23T08:57:21.429Z,99.90
2022-11-23T09:00:07.696Z,99.90
2022-11-23T09:02:53.400Z,99.90
2022-11-23T09:05:39.717Z,99.90
2022-11-23T09:08:25.430Z,99.90
2022-11-23T09:11:13.952Z,99.30
2022-11-23T09:13:59.447Z,96.60
2022-11-23T09:16:44.916Z,96.80
2022-11-23T09:19:30.552Z,92.70
2022-11-23T09:22:16.080Z,86.80
2022-11-23T09:25:02.063Z,85.70
2022-11-23T09:27:47.885Z,79.20
2022-11-23T09:30:33.172Z,82.30
2022-11-23T09:33:18.659Z,81.00
2022-11-23T09:36:04.998Z,81.20
2022-11-23T09:38:56.486Z,80.10
2022-11-23T09:42:04.590Z,77.00
2022-11-23T09:45:16.356Z,77.00
2022-11-23T09:48:23.405Z,78.00
2022-11-23T09:51:18.141Z,79.00
2022-11-23T09:54:10.781Z,72.00
2022-11-23T09:57:01.562Z,71.50
2022-11-23T10:00:15.785Z,70.70
2022-11-23T10:03:01.338Z,67.90
2022-11-23T10:06:17.391Z,62.60
2022-11-23T10:09:15.303Z,64.00
2022-11-23T10:12:34.718Z,65.10
2022-11-23T10:15:57.179Z,65.30
2022-11-23T10:18:51.696Z,60.90
2022-11-23T10:22:00.414Z,59.90
2022-11-23T10:24:53.124Z,61.60
2022-11-23T10:27:38.664Z,59.50
2022-11-23T10:30:24.325Z,61.00
2022-11-23T10:33:26.224Z,57.70
2022-11-23T10:36:13.752Z,56.70
2022-11-23T10:39:02.029Z,52.80
2022-11-23T10:41:47.781Z,54.00
2022-11-23T10:44:38.059Z,52.70
2022-11-23T10:47:49.300Z,51.50
2022-11-23T10:50:40.854Z,48.40
2022-11-23T10:53:30.980Z,44.80
2022-11-23T10:56:16.627Z,47.80
2022-11-23T10:59:02.010Z,46.40
2022-11-23T11:02:00.730Z,49.20
2022-11-23T11:04:47.326Z,47.80
2022-11-23T11:07:36.496Z,46.90
2022-11-23T11:10:38.760Z,42.00
2022-11-23T11:13:27.507Z,41.80
2022-11-23T11:16:30.881Z,47.50
2022-11-23T11:19:30.164Z,39.50
2022-11-23T11:22:34.942Z,42.70
2022-11-23T11:25:38.027Z,40.30
2022-11-23T11:28:29.300Z,38.10
2022-11-23T11:31:23.406Z,42.70
2022-11-23T11:34:16.662Z,40.10
2022-11-23T11:37:18.968Z,38.20
2022-11-23T11:40:23.749Z,36.00
2022-11-23T11:43:34.740Z,38.10
2022-11-23T11:46:30.452Z,39.20
2022-11-23T11:49:23.332Z,38.90
2022-11-23T11:52:19.074Z,38.60
2022-11-23T11:55:43.490Z,39.40
2022-11-23T11:58:29.740Z,40.30
2022-11-23T12:01:32.471Z,40.70
2022-11-23T12:04:22.545Z,42.80
2022-11-23T12:07:32.272Z,42.20
2022-11-23T12:10:24.781Z,42.60
2022-11-23T12:13:22.558Z,42.50
2022-11-23T12:17:10.137Z,43.00
2022-11-23T12:20:22.505Z,42.30
2022-11-23T12:23:20.406Z,39.00
2022-11-23T12:26:27.650Z,40.20
2022-11-23T12:29:12.926Z,38.30
2022-11-23T12:32:17.278Z,36.90
2022-11-23T12:35:26.766Z,40.00
2022-11-23T12:38:34.703Z,40.60
2022-11-23T12:41:29.363Z,41.80
2022-11-23T12:44:38.750Z,43.10
2022-11-23T12:47:35.197Z,45.80
2022-11-23T12:50:23.810Z,43.10
2022-11-23T12:53:27.570Z,44.10
2022-11-23T12:56:43.570Z,42.80
2022-11-23T12:59:57.376Z,44.40
2022-11-23T13:02:58.310Z,42.50
2022-11-23T13:05:46.402Z,44.10
2022-11-23T13:08:59.441Z,44.90
2022-11-23T13:11:59.819Z,45.10
2022-11-23T13:15:10.532Z,44.20
2022-11-23T13:18:04.433Z,44.40
2022-11-23T13:21:22.640Z,38.70
2022-11-23T13:24:30.868Z,36.20
2022-11-23T13:27:16.619Z,36.50
2022-11-23T13:30:11.046Z,39.90
2022-11-23T13:33:27.772Z,41.10
2022-11-23T13:37:04.488Z,39.30
2022-11-23T13:39:51.822Z,38.50
2022-11-23T13:42:37.168Z,41.40
2022-11-23T13:45:24.424Z,37.80
2022-11-23T13:48:09.766Z,38.20
2022-11-23T13:51:00.463Z,40.20
2022-11-23T13:53:54.665Z,39.20
2022-11-23T13:56:42.901Z,40.60
2022-11-23T13:59:32.030Z,42.30
2022-11-23T14:02:17.866Z,41.70
2022-11-23T14:05:51.627Z,40.50
2022-11-23T14:08:39.556Z,40.60
2022-11-23T14:11:26.728Z,40.70
2022-11-23T14:14:20.119Z,41.30
2022-11-23T14:17:18.049Z,39.50
2022-11-23T14:20:06.697Z,40.00
2022-11-23T14:23:10.981Z,39.10
2022-11-23T14:26:02.580Z,39.20
2022-11-23T14:29:35.578Z,40.30
2022-11-23T14:33:03.379Z,39.60
2022-11-23T14:35:54.284Z,42.20
2022-11-23T14:38:53.114Z,41.90
2022-11-23T14:41:41.206Z,42.40
2022-11-23T14:44:31.069Z,43.50
2022-11-23T14:47:28.752Z,47.00
2022-11-23T14:50:29.108Z,47.70
2022-11-23T14:53:14.611Z,52.50
2022-11-23T14:56:00.137Z,53.60
2022-11-23T14:58:45.338Z,52.30
2022-11-23T15:01:31.453Z,53.00
2022-11-23T15:04:33.977Z,51.20
2022-11-23T15:07:25.471Z,54.50
2022-11-23T15:10:19.967Z,55.10
2022-11-23T15:13:20.211Z,57.50
2022-11-23T15:16:06.236Z,58.00
2022-11-23T15:18:52.059Z,58.50
2022-11-23T15:21:37.294Z,58.50
2022-11-23T15:24:27.226Z,59.40
2022-11-23T15:27:29.627Z,56.00
2022-11-23T15:30:17.819Z,57.30
2022-11-23T15:33:09.630Z,60.80
2022-11-23T15:35:55.674Z,61.00
2022-11-23T15:38:41.439Z,60.80
2022-11-23T15:41:29.123Z,61.70
2022-11-23T15:44:30.895Z,63.00
2022-11-23T15:47:23.027Z,63.70
2022-11-23T15:50:10.116Z,64.00
2022-11-23T15:52:55.757Z,64.30
2022-11-23T15:55:42.556Z,66.20
2022-11-23T15:58:28.675Z,67.70
2022-11-23T16:01:14.844Z,71.80
2022-11-23T16:04:03.886Z,74.40
2022-11-23T16:06:49.315Z,75.90
2022-11-23T16:09:57.155Z,82.40
2022-11-23T16:12:51.669Z,85.60
2022-11-23T16:15:44.349Z,90.30
2022-11-23T16:18:31.919Z,93.00
2022-11-23T16:21:20.130Z,99.90
2022-11-23T16:24:05.752Z,99.90
2022-11-23T16:26:51.643Z,99.90
2022-11-23T16:29:37.654Z,99.90
2022-11-23T16:32:28.700Z,99.90
2022-11-23T16:35:20.306Z,99.90
2022-11-23T16:38:06.104Z,99.90
2022-11-23T16:40:51.786Z,99.90
2022-11-23T16:43:37.316Z,99.90
2022-11-23T16:46:23.160Z,99.90
2022-11-23T16:49:20.065Z,99.90
2022-11-23T16:52:05.429Z,99.90
2022-11-23T16:54:52.745Z,99.90
2022-11-23T16:57:38.868Z,99.90
2022-11-23T17:00:24.424Z,99.90
2022-11-23T17:03:15.072Z,99.90
2022-11-23T17:06:00.394Z,99.90
2022-11-23T17:08:46.535Z,99.90
2022-11-23T17:11:32.148Z,99.90
2022-11-23T17:14:19.331Z,99.90
2022-11-23T17:17:05.464Z,99.90
2022-11-23T17:19:51.682Z,99.90
2022-11-23T17:22:36.923Z,99.90
2022-11-23T17:25:22.495Z,99.90
2022-11-23T17:28:15.288Z,99.90
2022-11-23T17:31:01.483Z,99.90
2022-11-23T17:33:46.946Z,99.90
2022-11-23T17:36:32.288Z,99.90
2022-11-23T17:39:23.092Z,99.90
2022-11-23T17:42:13.702Z,99.90
2022-11-23T17:44:59.232Z,99.90
2022-11-23T17:47:45.353Z,99.90
2022-11-23T17:50:30.685Z,99.90
2022-11-23T17:53:18.104Z,99.90
2022-11-23T17:56:15.172Z,99.90
2022-11-23T17:59:00.775Z,99.90
2022-11-23T18:01:46.350Z,99.90
2022-11-23T18:04:31.590Z,99.90
2022-11-23T18:07:17.267Z,99.90
2022-11-23T18:10:03.153Z,99.90
2022-11-23T18:12:49.087Z,99.90
2022-11-23T18:15:34.409Z,99.90
2022-11-23T18:18:20.480Z,99.90
2022-11-23T18:21:06.835Z,99.90
2022-11-23T18:23:52.496Z,99.90
2022-11-23T18:26:38.893Z,99.90
2022-11-23T18:29:25.128Z,99.90
2022-11-23T18:32:10.808Z,99.90
2022-11-23T18:34:56.255Z,99.90
2022-11-23T18:37:41.782Z,99.90
2022-11-23T18:40:27.245Z,99.90
2022-11-23T18:43:12.370Z,99.90
2022-11-23T18:45:58.106Z,99.90
2022-11-23T18:48:43.676Z,99.90
2022-11-23T18:51:29.206Z,99.90
2022-11-23T18:54:14.489Z,99.90
2022-11-23T18:56:59.888Z,99.90
2022-11-23T19:00:01.634Z,99.90
2022-11-23T19:02:58.543Z,99.90
2022-11-23T19:05:43.863Z,99.90
2022-11-23T19:08:30.425Z,99.90
2022-11-23T19:11:20.065Z,99.90
2022-11-23T19:14:05.325Z,99.90
2022-11-23T19:16:50.517Z,99.90
2022-11-23T19:19:37.936Z,99.90
2022-11-23T19:22:24.141Z,99.90
2022-11-23T19:25:09.940Z,99.90
2022-11-23T19:27:55.728Z,99.90
2022-11-23T19:30:41.200Z,99.90
2022-11-23T19:33:26.625Z,99.90
2022-11-23T19:36:15.509Z,99.90
2022-11-23T19:39:01.145Z,99.90
2022-11-23T19:41:47.124Z,99.90
2022-11-23T19:44:32.709Z,99.90
2022-11-23T19:47:22.674Z,99.90
2022-11-23T19:50:08.835Z,99.90
2022-11-23T19:53:11.815Z,99.90
2022-11-23T19:56:11.813Z,99.90
2022-11-23T19:58:59.126Z,99.90
2022-11-23T20:01:44.725Z,99.90
2022-11-23T20:04:30.395Z,99.90
2022-11-23T20:07:15.688Z,99.90
2022-11-23T20:10:01.277Z,99.90
2022-11-23T20:12:46.815Z,99.90
2022-11-23T20:15:32.611Z,99.90
2022-11-23T20:18:18.569Z,99.90
2022-11-23T20:21:04.342Z,99.90
2022-11-23T20:24:05.772Z,99.90
2022-11-23T20:26:51.418Z,99.90
2022-11-23T20:29:37.016Z,99.90
2022-11-23T20:32:22.568Z,99.90
2022-11-23T20:35:08.621Z,99.90
2022-11-23T20:37:54.079Z,99.90
2022-11-23T20:40:39.687Z,99.90
2022-11-23T20:43:25.094Z,99.90
2022-11-23T20:46:12.446Z,99.90
2022-11-23T20:48:57.789Z,99.90
2022-11-23T20:51:43.163Z,99.90
2022-11-23T20:54:28.988Z,99.90
2022-11-23T20:57:15.012Z,99.90
2022-11-23T21:00:00.718Z,99.90
2022-11-23T21:02:54.312Z,99.90
2022-11-23T21:05:40.067Z,99.90
2022-11-23T21:08:34.280Z,99.90
2022-11-23T21:11:44.590Z,99.90
2022-11-23T21:14:31.716Z,99.90
2022-11-23T21:17:17.409Z,99.90
2022-11-23T21:20:03.204Z,99.90
2022-11-23T21:22:48.331Z,99.90
2022-11-23T21:25:35.575Z,99.90
2022-11-23T21:28:20.749Z,99.90
2022-11-23T21:31:10.184Z,99.90
2022-11-23T21:33:55.675Z,99.90
2022-11-23T21:36:41.159Z,99.90
2022-11-23T21:39:26.652Z,99.90
2022-11-23T21:42:12.541Z,99.90
2022-11-23T21:44:57.763Z,99.90
2022-11-23T21:47:43.212Z,99.90
2022-11-23T21:50:28.425Z,99.90
2022-11-23T21:53:14.057Z,99.90
2022-11-23T21:56:05.025Z,99.90
2022-11-23T21:58:50.651Z,99.90
2022-11-23T22:01:37.329Z,99.90
2022-11-23T22:04:23.536Z,99.90
2022-11-23T22:07:09.124Z,99.90
2022-11-23T22:09:54.605Z,99.90
2022-11-23T22:12:40.356Z,99.90
2022-11-23T22:15:26.637Z,99.90
2022-11-23T22:18:12.091Z,99.90
2022-11-23T22:21:03.996Z,99.90
2022-11-23T22:23:49.426Z,99.90
2022-11-23T22:26:35.810Z,99.90
2022-11-23T22:29:22.052Z,99.90
2022-11-23T22:32:07.337Z,99.90
2022-11-23T22:34:52.609Z,99.90
2022-11-23T22:37:38.357Z,99.90
2022-11-23T22:40:23.919Z,99.90
2022-11-23T22:43:09.501Z,99.90
2022-11-23T22:45:55.148Z,99.90
2022-11-23T22:48:43.041Z,99.90
2022-11-23T22:51:29.029Z,99.90
2022-11-23T22:54:14.504Z,99.90
2022-11-23T22:57:00.216Z,99.90
2022-11-23T22:59:45.412Z,99.90
2022-11-23T23:02:31.558Z,99.90
2022-11-23T23:05:17.073Z,99.90
2022-11-23T23:08:02.831Z,99.90
2022-11-23T23:10:48.252Z,99.90
2022-11-23T23:13:34.999Z,99.90
2022-11-23T23:16:21.052Z,99.90
2022-11-23T23:19:07.184Z,99.90
2022-11-23T23:21:52.755Z,99.90
2022-11-23T23:24:38.302Z,99.90
2022-11-23T23:27:24.203Z,99.90
2022-11-23T23:30:10.127Z,99.90
2022-11-23T23:32:58.206Z,99.90
2022-11-23T23:35:43.772Z,99.90
2022-11-23T23:38:29.878Z,99.90
2022-11-23T23:41:15.505Z,99.90
2022-11-23T23:44:00.808Z,99.90
2022-11-23T23:46:46.092Z,99.90
2022-11-23T23:49:31.669Z,99.90
2022-11-23T23:52:17.034Z,99.90
2022-11-23T23:55:02.477Z,99.90
2022-11-23T23:57:48.380Z,99.90
